Time;durP1;ratioP1;P1;durP2;ratioP2;P2;SDS_P1;SDS_P2;PMS_P1;PMS_P2;Temp;Humidity;BMP_temperature;BMP_pressure;BME280_temperature;BME280_humidity;BME280_pressure;Samples;Min_cycle;Max_cycle;Signal;HPM_P1;HPM_P2
2022/03/11 00:00:33;;;;;;;46.05;33.53;;;25.10;81.90;;;;;;1869779;76;21134;-86
2022/03/11 00:03:05;;;;;;;44.25;33.42;;;25.10;82.10;;;;;;1863821;76;22014;-87
2022/03/11 00:05:36;;;;;;;47.62;35.13;;;25.20;82.20;;;;;;1870814;75;21159;-86
2022/03/11 00:08:07;;;;;;;44.60;37.03;;;25.20;82.30;;;;;;1870671;75;21077;-86
2022/03/11 00:10:38;;;;;;;54.05;38.70;;;25.20;82.00;;;;;;1876133;75;21159;-87
2022/03/11 00:13:09;;;;;;;45.30;36.95;;;25.20;82.60;;;;;;1842930;78;21096;-86
2022/03/11 00:15:39;;;;;;;50.40;38.15;;;25.20;82.50;;;;;;1851109;75;21197;-87
2022/03/11 00:18:10;;;;;;;48.70;40.75;;;25.20;82.90;;;;;;1867631;75;21096;-86
2022/03/11 00:20:41;;;;;;;50.83;40.23;;;25.20;83.40;;;;;;1878924;75;21150;-86
2022/03/11 00:23:12;;;;;;;54.60;42.20;;;25.20;82.40;;;;;;1889895;75;21479;-86
2022/03/11 00:25:43;;;;;;;61.05;41.48;;;25.30;83.20;;;;;;1869764;76;21116;-85
2022/03/11 00:28:14;;;;;;;49.77;40.88;;;25.20;83.00;;;;;;1869364;75;21584;-86
2022/03/11 00:30:45;;;;;;;56.63;44.10;;;25.30;84.10;;;;;;1874935;75;21104;-85
2022/03/11 00:33:17;;;;;;;55.40;45.12;;;25.20;84.30;;;;;;1874928;76;21595;-84
2022/03/11 00:35:47;;;;;;;56.58;45.92;;;25.20;84.80;;;;;;1874275;75;21583;-87
2022/03/11 00:38:18;;;;;;;55.88;45.67;;;25.20;85.10;;;;;;1844727;76;21122;-85
2022/03/11 00:40:48;;;;;;;53.73;45.15;;;25.20;85.90;;;;;;1865348;75;21599;-86
2022/03/11 00:43:19;;;;;;;58.95;47.17;;;25.20;85.80;;;;;;1881693;75;21119;-86
2022/03/11 00:45:51;;;;;;;64.47;46.35;;;25.20;86.90;;;;;;1892332;74;21103;-86
2022/03/11 00:48:23;;;;;;;54.67;41.55;;;25.10;87.40;;;;;;1882069;75;22043;-85
2022/03/11 00:50:54;;;;;;;34.27;27.90;;;25.10;88.10;;;;;;1890134;74;21196;-86
2022/03/11 00:53:25;;;;;;;34.03;23.80;;;25.10;86.50;;;;;;1895720;74;21460;-86
2022/03/11 00:55:57;;;;;;;33.48;25.82;;;25.00;85.10;;;;;;1890421;74;21658;-86
2022/03/11 00:58:27;;;;;;;33.53;25.20;;;25.00;85.40;;;;;;1897228;74;21575;-88
2022/03/11 01:00:58;;;;;;;34.53;25.62;;;25.00;85.70;;;;;;1889641;74;21170;-87
2022/03/11 01:03:29;;;;;;;39.63;26.82;;;25.00;85.80;;;;;;1894029;73;21236;-88
2022/03/11 01:06:00;;;;;;;36.58;28.02;;;25.00;86.20;;;;;;1898466;74;21432;-84
2022/03/11 01:08:30;;;;;;;38.00;26.97;;;25.00;86.70;;;;;;1872286;75;21144;-82
2022/03/11 01:11:01;;;;;;;36.03;26.57;;;25.00;86.70;;;;;;1894865;76;21123;-85
2022/03/11 01:13:32;;;;;;;33.85;24.60;;;25.00;86.50;;;;;;1893816;76;21201;-84
2022/03/11 01:16:02;;;;;;;31.02;21.80;;;25.10;86.40;;;;;;1831584;77;21151;-85
2022/03/11 01:18:35;;;;;;;30.60;20.25;;;25.10;86.00;;;;;;1861469;76;21085;-84
2022/03/11 01:21:06;;;;;;;34.50;19.42;;;25.10;85.00;;;;;;1878467;76;21264;-85
2022/03/11 01:23:36;;;;;;;29.57;19.27;;;25.20;83.70;;;;;;1864306;75;21159;-85
2022/03/11 01:26:07;;;;;;;25.60;17.35;;;25.20;83.00;;;;;;1880832;76;21113;-85
2022/03/11 01:28:41;;;;;;;27.25;17.73;;;25.20;83.20;;;;;;1858319;76;21095;-84
2022/03/11 01:31:12;;;;;;;24.57;17.65;;;25.30;83.00;;;;;;1898737;74;21177;-83
2022/03/11 01:33:47;;;;;;;35.58;18.12;;;25.30;82.70;;;;;;1876057;75;21178;-89
2022/03/11 01:36:17;;;;;;;26.87;17.55;;;25.30;82.00;;;;;;1883993;74;21132;-85
2022/03/11 01:38:47;;;;;;;28.77;18.62;;;25.40;81.80;;;;;;1889545;74;21397;-85
2022/03/11 01:41:18;;;;;;;26.33;18.55;;;25.40;81.70;;;;;;1862212;76;21094;-77
2022/03/11 01:43:51;;;;;;;29.35;18.95;;;25.40;81.50;;;;;;1880172;74;21124;-74
2022/03/11 01:46:22;;;;;;;32.08;19.17;;;25.40;81.70;;;;;;1885633;74;21135;-73
2022/03/11 01:48:53;;;;;;;29.80;18.77;;;25.40;81.50;;;;;;1887379;75;21111;-74
2022/03/11 01:51:24;;;;;;;30.25;18.80;;;25.50;80.80;;;;;;1884670;74;21136;-74
2022/03/11 01:53:56;;;;;;;27.80;18.25;;;25.50;80.60;;;;;;1862999;76;21218;-74
2022/03/11 01:56:27;;;;;;;28.52;18.60;;;25.60;80.60;;;;;;1892925;74;21128;-73
2022/03/11 01:58:58;;;;;;;26.15;18.17;;;25.60;80.00;;;;;;1881488;74;21127;-74
2022/03/11 02:01:29;;;;;;;27.67;18.25;;;25.70;79.30;;;;;;1888493;74;21155;-74
2022/03/11 02:04:01;;;;;;;26.05;17.92;;;25.80;79.70;;;;;;1885057;74;21096;-73
2022/03/11 02:06:32;;;;;;;26.80;17.80;;;25.80;79.70;;;;;;1873095;75;21206;-73
2022/03/11 02:09:04;;;;;;;27.67;17.92;;;25.90;79.80;;;;;;1888924;75;21708;-72
2022/03/11 02:11:36;;;;;;;25.20;17.73;;;26.00;79.70;;;;;;1888454;74;21103;-72
2022/03/11 02:14:07;;;;;;;28.47;15.10;;;26.10;79.40;;;;;;1860372;76;21115;-71
2022/03/11 02:16:40;;;;;;;26.00;16.67;;;26.20;79.00;;;;;;1883488;76;21203;-70
2022/03/11 02:19:10;;;;;;;20.23;14.45;;;26.20;78.30;;;;;;1885384;74;21221;-73
2022/03/11 02:21:44;;;;;;;20.23;13.78;;;26.30;77.30;;;;;;1850445;76;21563;-73
2022/03/11 02:24:15;;;;;;;23.35;14.43;;;26.30;77.40;;;;;;1883105;74;21198;-72
2022/03/11 02:26:46;;;;;;;18.95;13.90;;;26.40;77.10;;;;;;1883859;75;21224;-73
2022/03/11 02:29:17;;;;;;;20.77;14.30;;;26.50;77.60;;;;;;1886551;75;21225;-72
2022/03/11 02:31:48;;;;;;;28.85;15.48;;;26.60;77.30;;;;;;1887325;74;21147;-72
2022/03/11 02:34:19;;;;;;;19.30;14.93;;;26.60;77.40;;;;;;1881994;76;21711;-71
2022/03/11 02:36:50;;;;;;;23.95;13.98;;;26.60;77.50;;;;;;1887623;76;21123;-73
2022/03/11 02:39:20;;;;;;;22.17;13.80;;;26.70;77.50;;;;;;1891656;75;21654;-74
2022/03/11 02:41:51;;;;;;;21.00;13.20;;;26.80;77.20;;;;;;1892117;74;21071;-73
2022/03/11 02:44:23;;;;;;;20.35;13.50;;;26.90;76.80;;;;;;1889196;76;21618;-72
2022/03/11 02:46:54;;;;;;;23.22;13.03;;;27.00;76.00;;;;;;1864649;75;21155;-72
2022/03/11 02:49:24;;;;;;;20.75;13.30;;;27.00;76.00;;;;;;1867199;76;21148;-72
2022/03/11 02:51:56;;;;;;;20.90;12.73;;;27.10;75.80;;;;;;1860701;75;21612;-72
2022/03/11 02:54:27;;;;;;;21.23;12.93;;;27.20;75.50;;;;;;1864714;76;21147;-73
2022/03/11 02:56:57;;;;;;;20.02;12.90;;;27.30;75.80;;;;;;1859078;75;21126;-72
2022/03/11 02:59:28;;;;;;;20.95;13.13;;;27.30;75.90;;;;;;1866885;75;21192;-72
2022/03/11 03:01:59;;;;;;;24.60;14.15;;;27.40;75.20;;;;;;1862089;75;21196;-71
2022/03/11 03:04:30;;;;;;;23.15;13.40;;;27.50;74.20;;;;;;1867433;75;21234;-72
2022/03/11 03:07:01;;;;;;;20.02;13.35;;;27.60;75.30;;;;;;1864648;75;21187;-73
2022/03/11 03:09:32;;;;;;;18.98;13.60;;;27.70;72.60;;;;;;1866185;75;22321;-72
2022/03/11 03:12:03;;;;;;;24.35;14.30;;;27.80;73.10;;;;;;1867738;76;21777;-73
2022/03/11 03:14:34;;;;;;;20.23;13.30;;;27.90;72.60;;;;;;1866126;75;21072;-71
2022/03/11 03:17:05;;;;;;;24.02;13.55;;;28.00;73.30;;;;;;1859517;75;21175;-72
2022/03/11 03:19:38;;;;;;;20.25;13.78;;;28.10;73.00;;;;;;1867199;76;21175;-71
2022/03/11 03:22:09;;;;;;;22.52;13.08;;;28.20;71.90;;;;;;1854982;76;21613;-71
2022/03/11 03:24:40;;;;;;;26.75;14.43;;;28.30;70.50;;;;;;1866240;76;21671;-72
2022/03/11 03:27:11;;;;;;;18.95;13.40;;;28.30;71.20;;;;;;1836285;78;21182;-72
2022/03/11 03:29:42;;;;;;;25.57;13.22;;;28.40;71.00;;;;;;1835572;78;21202;-72
2022/03/11 03:32:13;;;;;;;20.20;13.05;;;28.50;70.70;;;;;;1792521;80;21158;-72
2022/03/11 03:34:44;;;;;;;22.13;13.58;;;28.50;70.00;;;;;;1813251;79;21127;-72
2022/03/11 03:37:15;;;;;;;20.25;13.20;;;28.50;69.60;;;;;;1818557;79;21128;-72
2022/03/11 03:39:46;;;;;;;21.55;13.78;;;28.60;69.50;;;;;;1803200;78;21183;-71
2022/03/11 03:42:17;;;;;;;18.73;13.13;;;28.60;69.80;;;;;;1861499;75;21670;-72
2022/03/11 03:44:47;;;;;;;24.92;13.13;;;28.70;69.20;;;;;;1872517;76;21164;-72
2022/03/11 03:47:18;;;;;;;25.72;13.53;;;28.70;69.40;;;;;;1866888;76;21742;-71
2022/03/11 03:49:49;;;;;;;23.22;13.75;;;28.70;69.60;;;;;;1874308;76;21575;-72
2022/03/11 03:52:20;;;;;;;18.62;12.80;;;28.80;69.40;;;;;;1877845;76;21154;-72
2022/03/11 03:54:51;;;;;;;23.22;13.65;;;28.90;69.30;;;;;;1871362;75;21141;-71
2022/03/11 03:57:21;;;;;;;20.97;13.13;;;29.00;68.70;;;;;;1867018;76;21111;-71
2022/03/11 03:59:52;;;;;;;21.62;13.15;;;29.10;69.20;;;;;;1871209;75;21163;-71
2022/03/11 04:02:23;;;;;;;20.25;13.68;;;29.30;68.30;;;;;;1868499;76;21072;-72
2022/03/11 04:04:54;;;;;;;25.65;14.68;;;29.40;67.70;;;;;;1870433;75;21151;-72
2022/03/11 04:07:25;;;;;;;23.30;13.20;;;29.50;67.80;;;;;;1872794;75;21156;-71
2022/03/11 04:09:56;;;;;;;21.05;13.40;;;29.60;67.70;;;;;;1868444;76;21078;-71
2022/03/11 04:12:27;;;;;;;19.23;13.35;;;29.60;68.30;;;;;;1869605;76;21565;-73
2022/03/11 04:14:57;;;;;;;20.82;13.13;;;29.70;68.20;;;;;;1870666;76;21190;-71
2022/03/11 04:17:28;;;;;;;21.75;14.07;;;29.80;67.40;;;;;;1867811;76;21939;-73
2022/03/11 04:19:59;;;;;;;19.65;14.73;;;29.80;67.40;;;;;;1862489;75;21615;-73
2022/03/11 04:22:30;;;;;;;24.23;13.03;;;29.90;66.70;;;;;;1874036;76;21202;-72
2022/03/11 04:25:01;;;;;;;20.30;13.35;;;29.90;66.90;;;;;;1872415;76;21686;-72
2022/03/11 04:27:32;;;;;;;17.20;12.23;;;29.90;66.20;;;;;;1877586;76;21261;-72
2022/03/11 04:30:03;;;;;;;20.57;13.65;;;30.00;66.90;;;;;;1867242;75;21183;-71
2022/03/11 04:32:34;;;;;;;21.80;13.00;;;30.00;64.80;;;;;;1870573;76;21135;-72
2022/03/11 04:35:07;;;;;;;19.92;13.05;;;30.00;65.00;;;;;;1864852;75;21218;-72
2022/03/11 04:37:37;;;;;;;19.23;13.50;;;30.10;65.10;;;;;;1857494;75;21155;-72
2022/03/11 04:40:09;;;;;;;19.77;14.00;;;30.10;64.60;;;;;;1863399;76;21073;-74
2022/03/11 04:42:40;;;;;;;22.62;14.80;;;30.00;64.80;;;;;;1867916;76;21151;-72
2022/03/11 04:45:11;;;;;;;26.45;14.58;;;30.00;65.30;;;;;;1861599;76;21160;-72
2022/03/11 04:47:42;;;;;;;20.45;15.18;;;30.10;64.60;;;;;;1832894;77;21194;-72
2022/03/11 04:50:13;;;;;;;19.60;13.40;;;30.20;65.10;;;;;;1888829;76;21768;-72
2022/03/11 04:52:44;;;;;;;18.62;13.90;;;30.30;64.90;;;;;;1880569;76;21146;-72
2022/03/11 04:55:16;;;;;;;21.40;14.15;;;30.40;64.40;;;;;;1878525;76;21119;-72
2022/03/11 04:57:47;;;;;;;24.90;14.38;;;30.50;64.40;;;;;;1881497;76;21154;-72
2022/03/11 05:00:18;;;;;;;18.60;13.00;;;30.60;64.60;;;;;;1885862;75;21708;-72
2022/03/11 05:02:50;;;;;;;20.90;13.95;;;30.60;63.50;;;;;;1889459;75;21166;-71
2022/03/11 05:05:21;;;;;;;22.17;14.95;;;30.60;62.80;;;;;;1892734;75;21167;-71
2022/03/11 05:07:52;;;;;;;19.92;12.85;;;30.50;62.50;;;;;;1890094;75;21312;-72
2022/03/11 05:10:23;;;;;;;20.30;13.68;;;30.60;63.50;;;;;;1881974;75;22632;-72
2022/03/11 05:12:54;;;;;;;20.30;13.93;;;30.60;62.60;;;;;;1885303;75;21080;-73
2022/03/11 05:15:24;;;;;;;20.23;13.43;;;30.70;62.40;;;;;;1887867;75;21162;-74
2022/03/11 05:17:55;;;;;;;21.12;14.30;;;30.70;62.80;;;;;;1893805;75;21135;-72
2022/03/11 05:20:26;;;;;;;17.82;13.45;;;30.80;62.00;;;;;;1877018;75;21131;-72
2022/03/11 05:22:57;;;;;;;18.98;13.83;;;30.90;61.30;;;;;;1886407;76;21233;-74
2022/03/11 05:25:27;;;;;;;21.77;14.10;;;31.00;61.20;;;;;;1881947;74;21138;-74
2022/03/11 05:27:58;;;;;;;20.50;13.65;;;31.00;61.50;;;;;;1887873;76;21154;-71
2022/03/11 05:30:30;;;;;;;23.80;14.95;;;31.10;61.30;;;;;;1863408;76;21563;-71
2022/03/11 05:33:00;;;;;;;20.35;13.40;;;31.10;61.80;;;;;;1890594;76;21166;-71
2022/03/11 05:35:32;;;;;;;17.98;13.28;;;31.20;59.90;;;;;;1885472;76;21767;-71
2022/03/11 05:38:02;;;;;;;21.60;13.80;;;31.30;60.80;;;;;;1890804;75;21221;-71
2022/03/11 05:40:34;;;;;;;19.35;12.68;;;31.30;59.80;;;;;;1886525;76;21215;-72
2022/03/11 05:43:05;;;;;;;21.90;13.43;;;31.30;60.00;;;;;;1886862;76;21732;-73
2022/03/11 05:45:37;;;;;;;19.37;13.78;;;31.40;59.30;;;;;;1884108;76;21123;-72
2022/03/11 05:48:09;;;;;;;17.02;12.73;;;31.50;60.30;;;;;;1886301;76;21591;-72
2022/03/11 05:50:39;;;;;;;21.37;12.93;;;31.50;59.10;;;;;;1869495;75;21196;-72
2022/03/11 05:53:10;;;;;;;17.85;12.60;;;31.60;58.90;;;;;;1870055;76;21092;-72
2022/03/11 05:55:40;;;;;;;20.15;13.78;;;31.60;58.30;;;;;;1871907;76;21154;-72
2022/03/11 05:58:12;;;;;;;17.40;13.45;;;31.70;59.70;;;;;;1868249;76;21615;-72
2022/03/11 06:00:43;;;;;;;18.62;13.72;;;31.80;58.30;;;;;;1872179;76;21135;-73
2022/03/11 06:03:14;;;;;;;22.45;13.48;;;31.80;58.50;;;;;;1867670;76;21614;-72
2022/03/11 06:05:45;;;;;;;20.23;13.80;;;32.00;57.30;;;;;;1868851;76;21148;-72
2022/03/11 06:08:16;;;;;;;21.27;13.70;;;32.00;57.30;;;;;;1860389;76;21163;-73
2022/03/11 06:10:47;;;;;;;21.75;13.15;;;32.00;58.40;;;;;;1868018;76;21485;-72
2022/03/11 06:13:18;;;;;;;19.40;13.70;;;32.00;57.70;;;;;;1871158;76;21163;-72
2022/03/11 06:15:49;;;;;;;17.17;13.15;;;32.10;57.50;;;;;;1870975;76;21587;-73
2022/03/11 06:18:20;;;;;;;25.05;13.70;;;32.10;58.10;;;;;;1873300;76;21168;-72
2022/03/11 06:20:50;;;;;;;19.82;14.50;;;32.10;57.30;;;;;;1869697;75;21411;-72
2022/03/11 06:23:21;;;;;;;17.98;13.25;;;32.20;57.20;;;;;;1859732;76;21188;-72
2022/03/11 06:25:52;;;;;;;16.77;13.03;;;32.20;57.70;;;;;;1873322;76;21112;-73
2022/03/11 06:28:23;;;;;;;23.02;13.78;;;32.20;57.90;;;;;;1872982;76;21097;-73
2022/03/11 06:30:54;;;;;;;20.32;12.82;;;32.20;58.60;;;;;;1873400;76;21156;-72
2022/03/11 06:33:25;;;;;;;21.70;13.35;;;32.30;58.70;;;;;;1857324;76;21707;-73
2022/03/11 06:35:56;;;;;;;18.23;13.10;;;32.30;57.70;;;;;;1867852;76;21147;-73
2022/03/11 06:38:26;;;;;;;19.37;13.85;;;32.40;57.80;;;;;;1871615;76;21717;-72
2022/03/11 06:40:57;;;;;;;18.42;13.65;;;32.40;57.70;;;;;;1869454;76;22208;-72
2022/03/11 06:43:28;;;;;;;20.15;13.32;;;32.40;57.60;;;;;;1862882;76;21100;-73
2022/03/11 06:45:59;;;;;;;18.05;13.25;;;32.50;56.70;;;;;;1861247;76;21635;-73
2022/03/11 06:48:29;;;;;;;19.60;13.22;;;32.60;57.10;;;;;;1862060;76;21634;-73
2022/03/11 06:51:04;;;;;;;23.92;14.13;;;32.60;55.80;;;;;;1832643;77;21152;-72
2022/03/11 06:53:33;;;;;;;19.48;13.35;;;32.60;55.70;;;;;;1835444;78;21206;-72
2022/03/11 06:56:05;;;;;;;21.68;13.35;;;32.70;56.80;;;;;;1835088;77;21638;-85
2022/03/11 06:58:35;;;;;;;16.07;13.50;;;32.70;55.90;;;;;;1826132;78;21256;-85
2022/03/11 07:01:06;;;;;;;19.55;13.13;;;32.70;56.00;;;;;;1821174;78;21228;-85
2022/03/11 07:03:37;;;;;;;16.97;13.55;;;32.70;55.40;;;;;;1817144;79;21120;-85
2022/03/11 07:06:08;;;;;;;20.97;13.95;;;32.70;55.80;;;;;;1820619;79;21147;-85
2022/03/11 07:08:39;;;;;;;18.30;14.05;;;32.70;56.30;;;;;;1821060;79;21194;-86
2022/03/11 07:11:09;;;;;;;18.57;13.25;;;32.60;57.00;;;;;;1821140;77;21159;-86
2022/03/11 07:13:40;;;;;;;26.73;13.35;;;32.70;56.80;;;;;;1815784;79;21602;-86
2022/03/11 07:16:12;;;;;;;16.37;13.53;;;32.60;56.50;;;;;;1816560;79;21097;-85
2022/03/11 07:18:43;;;;;;;19.37;13.50;;;32.60;56.60;;;;;;1858582;75;21128;-71
2022/03/11 07:21:14;;;;;;;17.37;13.13;;;32.60;56.60;;;;;;1862969;76;21080;-72
2022/03/11 07:23:46;;;;;;;17.27;13.78;;;32.60;56.60;;;;;;1865158;77;21190;-71
2022/03/11 07:26:16;;;;;;;17.40;12.45;;;32.60;56.30;;;;;;1863347;77;21134;-71
2022/03/11 07:28:47;;;;;;;18.60;12.70;;;32.60;57.00;;;;;;1853440;77;21477;-72
2022/03/11 07:31:18;;;;;;;16.30;13.38;;;32.50;57.30;;;;;;1855166;75;21148;-72
2022/03/11 07:33:49;;;;;;;19.55;13.78;;;32.50;57.30;;;;;;1872982;75;21104;-71
2022/03/11 07:36:19;;;;;;;20.90;13.88;;;32.50;57.00;;;;;;1856060;75;21260;-72
2022/03/11 07:38:50;;;;;;;18.02;13.95;;;32.50;56.70;;;;;;1849618;75;21124;-71
2022/03/11 07:41:22;;;;;;;20.85;13.70;;;32.50;56.70;;;;;;1857599;75;21119;-71
2022/03/11 07:43:53;;;;;;;17.75;13.83;;;32.40;57.70;;;;;;1855451;76;21539;-71
2022/03/11 07:46:27;;;;;;;18.55;13.22;;;32.50;57.60;;;;;;1858683;76;21528;-71
2022/03/11 07:48:59;;;;;;;17.50;13.72;;;32.50;57.40;;;;;;1863403;75;21100;-71
2022/03/11 07:51:30;;;;;;;19.45;13.43;;;32.50;57.50;;;;;;1851844;77;21127;-71
2022/03/11 07:54:02;;;;;;;19.90;13.30;;;32.50;57.50;;;;;;1884794;75;21639;-72
2022/03/11 07:56:33;;;;;;;22.62;14.28;;;32.50;57.10;;;;;;1884765;74;21700;-71
2022/03/11 07:59:05;;;;;;;22.22;14.65;;;32.50;57.20;;;;;;1891672;75;21134;-71
2022/03/11 08:01:36;;;;;;;20.97;13.83;;;32.50;57.10;;;;;;1888767;75;21185;-72
2022/03/11 08:04:08;;;;;;;26.77;17.75;;;32.50;57.70;;;;;;1885472;75;21232;-72
2022/03/11 08:06:39;;;;;;;21.97;13.93;;;32.50;57.60;;;;;;1894543;75;21569;-71
2022/03/11 08:09:10;;;;;;;24.18;14.45;;;32.50;57.30;;;;;;1896768;75;21111;-71
2022/03/11 08:11:41;;;;;;;21.87;14.23;;;32.50;57.10;;;;;;1898001;75;21142;-71
2022/03/11 08:14:13;;;;;;;18.05;13.35;;;32.50;57.60;;;;;;1873526;75;21539;-71
2022/03/11 08:16:44;;;;;;;18.52;13.60;;;32.50;57.60;;;;;;1889832;75;21634;-71
2022/03/11 08:19:14;;;;;;;20.20;13.60;;;32.50;57.90;;;;;;1892639;74;21574;-72
2022/03/11 08:21:47;;;;;;;20.32;13.90;;;32.50;57.60;;;;;;1894510;75;21156;-72
2022/03/11 08:24:18;;;;;;;17.92;13.35;;;32.40;57.40;;;;;;1898349;75;21134;-70
2022/03/11 08:26:49;;;;;;;21.15;14.40;;;32.50;57.40;;;;;;1880367;75;21150;-71
2022/03/11 08:29:20;;;;;;;23.15;14.40;;;32.50;57.60;;;;;;1892063;74;21103;-70
2022/03/11 08:31:51;;;;;;;19.65;13.48;;;32.50;58.30;;;;;;1899420;75;21123;-72
2022/03/11 08:34:22;;;;;;;19.50;13.45;;;32.40;57.90;;;;;;1872335;75;21189;-72
2022/03/11 08:36:54;;;;;;;17.37;13.32;;;32.50;58.00;;;;;;1892837;75;21126;-72
2022/03/11 08:39:25;;;;;;;20.52;14.38;;;32.50;57.80;;;;;;1878250;75;21229;-72
2022/03/11 08:41:55;;;;;;;20.88;14.53;;;32.40;57.70;;;;;;1891244;75;21155;-72
2022/03/11 08:44:26;;;;;;;23.95;13.68;;;32.40;57.50;;;;;;1895710;75;21131;-71
2022/03/11 08:46:58;;;;;;;19.92;13.58;;;32.40;57.20;;;;;;1893551;75;21166;-71
2022/03/11 08:49:28;;;;;;;18.00;13.28;;;32.40;56.70;;;;;;1874504;75;21139;-71
2022/03/11 08:51:59;;;;;;;22.75;13.93;;;32.50;56.90;;;;;;1887778;75;21151;-72
2022/03/11 08:54:30;;;;;;;18.95;14.58;;;32.40;57.50;;;;;;1881392;76;21198;-71
2022/03/11 08:57:01;;;;;;;18.48;13.08;;;32.40;57.60;;;;;;1888075;76;21606;-71
2022/03/11 08:59:32;;;;;;;22.75;14.33;;;32.40;57.90;;;;;;1870201;76;21571;-71
2022/03/11 09:02:03;;;;;;;18.17;13.48;;;32.40;58.10;;;;;;1885525;75;21654;-72
2022/03/11 09:04:34;;;;;;;17.02;13.78;;;32.50;57.90;;;;;;1889012;76;21224;-71
2022/03/11 09:07:05;;;;;;;21.75;15.53;;;32.40;58.10;;;;;;1874276;75;21572;-71
2022/03/11 09:09:37;;;;;;;19.75;13.13;;;32.40;57.90;;;;;;1886003;75;21191;-73
2022/03/11 09:12:08;;;;;;;19.95;13.85;;;32.40;58.20;;;;;;1887810;76;21143;-72
2022/03/11 09:14:39;;;;;;;20.90;13.25;;;32.40;58.40;;;;;;1888567;76;21167;-72
2022/03/11 09:17:10;;;;;;;19.17;14.15;;;32.40;58.20;;;;;;1853945;76;21155;-71
2022/03/11 09:19:43;;;;;;;17.17;13.32;;;32.30;58.00;;;;;;1881606;74;21214;-71
2022/03/11 09:22:17;;;;;;;22.42;14.33;;;32.30;58.10;;;;;;1882811;76;21714;-72
2022/03/11 09:24:47;;;;;;;16.17;12.80;;;32.30;57.70;;;;;;1883757;76;21531;-71
2022/03/11 09:27:18;;;;;;;17.05;12.80;;;32.30;58.40;;;;;;1889340;75;21150;-71
2022/03/11 09:29:49;;;;;;;20.52;13.93;;;32.20;58.00;;;;;;1865386;76;21543;-71
2022/03/11 09:32:20;;;;;;;20.43;14.25;;;32.20;57.90;;;;;;1883803;75;21149;-71
2022/03/11 09:34:51;;;;;;;21.27;14.28;;;32.30;58.90;;;;;;1870160;76;21598;-71
2022/03/11 09:37:22;;;;;;;17.75;13.40;;;32.20;58.30;;;;;;1878723;74;21630;-71
2022/03/11 09:39:54;;;;;;;25.45;14.23;;;32.20;58.40;;;;;;1824508;77;21069;-72
2022/03/11 09:42:25;;;;;;;18.10;13.90;;;32.20;58.50;;;;;;1887688;75;21095;-72
2022/03/11 09:44:57;;;;;;;25.40;14.25;;;32.30;58.50;;;;;;1883341;76;21151;-71
2022/03/11 09:47:28;;;;;;;18.98;13.83;;;32.20;58.50;;;;;;1883936;75;21432;-72
2022/03/11 09:49:59;;;;;;;19.07;13.65;;;32.20;58.50;;;;;;1848868;76;21100;-72
2022/03/11 09:52:33;;;;;;;18.07;13.43;;;32.10;57.90;;;;;;1882057;75;21132;-71
2022/03/11 09:55:07;;;;;;;20.17;13.15;;;32.10;58.00;;;;;;1876953;76;21076;-71
2022/03/11 09:57:38;;;;;;;16.97;12.80;;;32.10;58.70;;;;;;1870780;75;21648;-71
2022/03/11 10:00:10;;;;;;;17.62;13.93;;;32.10;58.40;;;;;;1878961;75;21580;-70
2022/03/11 10:02:43;;;;;;;20.32;13.78;;;32.10;58.50;;;;;;1868057;76;21235;-71
2022/03/11 10:05:17;;;;;;;20.05;13.68;;;32.00;58.40;;;;;;1874587;75;22056;-71
2022/03/11 10:07:51;;;;;;;18.00;13.75;;;32.00;58.60;;;;;;1855486;75;21668;-71
2022/03/11 10:10:22;;;;;;;18.45;13.13;;;31.90;58.70;;;;;;1873322;76;21552;-71
2022/03/11 10:12:54;;;;;;;18.82;14.03;;;31.90;59.20;;;;;;1873506;75;21127;-70
2022/03/11 10:15:27;;;;;;;18.12;12.75;;;31.90;58.50;;;;;;1874292;75;21155;-70
2022/03/11 10:18:02;;;;;;;18.27;13.38;;;31.80;58.50;;;;;;1876401;75;21610;-70
2022/03/11 10:20:32;;;;;;;18.85;13.85;;;31.80;58.80;;;;;;1879866;75;21236;-70
2022/03/11 10:23:05;;;;;;;22.37;14.33;;;31.80;58.80;;;;;;1865513;75;21828;-71
2022/03/11 10:25:36;;;;;;;20.68;14.43;;;31.80;58.60;;;;;;1865942;76;21547;-71
2022/03/11 10:28:09;;;;;;;18.87;13.32;;;31.70;58.80;;;;;;1865841;75;21229;-71
2022/03/11 10:30:43;;;;;;;18.87;13.78;;;31.70;58.80;;;;;;1867621;76;21672;-71
2022/03/11 10:33:16;;;;;;;18.55;13.83;;;31.60;58.80;;;;;;1872018;76;21151;-72
2022/03/11 10:35:48;;;;;;;19.50;13.40;;;31.70;59.30;;;;;;1878486;76;21594;-83
2022/03/11 10:38:22;;;;;;;18.12;13.55;;;31.70;59.20;;;;;;1877361;75;21212;-83
2022/03/11 10:40:55;;;;;;;16.90;13.22;;;31.60;58.10;;;;;;1873220;76;21630;-83
2022/03/11 10:43:28;;;;;;;19.82;14.20;;;31.60;57.90;;;;;;1874657;76;21205;-82
2022/03/11 10:46:01;;;;;;;18.30;13.75;;;31.60;58.10;;;;;;1870111;76;21219;-82
2022/03/11 10:48:36;;;;;;;17.70;13.53;;;31.60;58.00;;;;;;1875417;75;21174;-81
2022/03/11 10:51:09;;;;;;;18.20;13.80;;;31.50;58.10;;;;;;1871548;76;21626;-82
2022/03/11 10:53:41;;;;;;;20.20;13.30;;;31.50;57.80;;;;;;1851987;76;21183;-83
2022/03/11 10:56:19;;;;;;;21.12;14.10;;;31.50;58.00;;;;;;1866368;76;21285;-83
2022/03/11 10:58:49;;;;;;;17.25;13.35;;;31.50;58.00;;;;;;1853903;75;21131;-84
2022/03/11 11:01:23;;;;;;;19.37;13.65;;;31.50;58.00;;;;;;1861745;76;21139;-82
2022/03/11 11:03:54;;;;;;;19.23;13.78;;;31.50;57.70;;;;;;1833707;77;21560;-82
2022/03/11 11:06:25;;;;;;;19.65;14.35;;;31.50;58.00;;;;;;1803622;78;21162;-82
2022/03/11 11:08:56;;;;;;;30.17;19.90;;;31.40;58.00;;;;;;1869191;75;21133;-83
2022/03/11 11:11:27;;;;;;;18.65;14.90;;;31.40;58.00;;;;;;1863979;76;21108;-82
2022/03/11 11:14:04;;;;;;;19.55;14.15;;;31.40;58.50;;;;;;1869426;76;21151;-82
2022/03/11 11:16:40;;;;;;;17.95;13.80;;;31.30;58.30;;;;;;1870371;75;21270;-83
2022/03/11 11:19:10;;;;;;;24.27;14.10;;;31.30;58.20;;;;;;1868691;75;21574;-83
2022/03/11 11:21:42;;;;;;;18.20;13.65;;;31.30;58.20;;;;;;1869745;75;21099;-83
2022/03/11 11:24:16;;;;;;;20.80;14.15;;;31.20;58.10;;;;;;1865385;76;21607;-83
2022/03/11 11:26:49;;;;;;;21.93;14.58;;;31.30;58.50;;;;;;1868278;76;21061;-83
2022/03/11 11:29:22;;;;;;;25.12;14.55;;;31.20;58.40;;;;;;1871164;76;21080;-82
2022/03/11 11:31:54;;;;;;;20.72;15.03;;;31.20;58.50;;;;;;1854939;76;21133;-82
2022/03/11 11:34:27;;;;;;;19.92;14.43;;;31.20;58.40;;;;;;1843524;76;21233;-83
2022/03/11 11:36:59;;;;;;;21.82;15.35;;;31.20;58.60;;;;;;1836512;77;21226;-82
2022/03/11 11:39:32;;;;;;;17.73;15.23;;;31.10;58.40;;;;;;1872422;76;21088;-82
2022/03/11 11:42:06;;;;;;;19.23;14.33;;;31.10;58.40;;;;;;1878531;75;21064;-81
2022/03/11 11:44:39;;;;;;;19.37;15.25;;;31.10;58.60;;;;;;1878661;76;21135;-82
2022/03/11 11:47:11;;;;;;;20.25;15.15;;;31.00;58.50;;;;;;1864575;75;21176;-81
2022/03/11 11:49:43;;;;;;;20.97;15.48;;;31.00;58.60;;;;;;1844983;76;21192;-82
2022/03/11 11:52:16;;;;;;;25.02;16.65;;;31.00;58.90;;;;;;1853413;75;21086;-82
2022/03/11 11:54:47;;;;;;;25.60;16.85;;;31.10;59.00;;;;;;1868815;75;21126;-82
2022/03/11 11:57:20;;;;;;;23.70;18.07;;;31.00;58.90;;;;;;1866936;76;22119;-82
2022/03/11 11:59:51;;;;;;;28.25;20.40;;;31.00;59.10;;;;;;1866243;75;21186;-82
2022/03/11 12:02:24;;;;;;;30.37;20.57;;;31.00;59.50;;;;;;1865100;75;21215;-82
2022/03/11 12:04:55;;;;;;;28.25;19.45;;;31.00;59.50;;;;;;1869237;76;21712;-82
2022/03/11 12:07:28;;;;;;;28.52;19.12;;;30.90;59.60;;;;;;1874503;76;21190;-82
2022/03/11 12:10:01;;;;;;;27.15;19.45;;;30.90;59.80;;;;;;1855776;76;21155;-83
2022/03/11 12:12:34;;;;;;;23.25;18.00;;;30.90;60.00;;;;;;1876333;75;21214;-83
2022/03/11 12:15:04;;;;;;;26.55;18.07;;;30.90;60.00;;;;;;1864951;75;21103;-83
2022/03/11 12:17:38;;;;;;;29.40;19.75;;;30.90;60.10;;;;;;1868537;75;21671;-83
2022/03/11 12:20:12;;;;;;;23.65;19.40;;;30.80;60.10;;;;;;1873219;75;21134;-83
2022/03/11 12:22:45;;;;;;;26.50;19.17;;;30.80;60.30;;;;;;1868185;75;21251;-83
2022/03/11 12:25:15;;;;;;;23.05;18.90;;;30.80;60.30;;;;;;1863221;75;21159;-83
2022/03/11 12:27:48;;;;;;;26.93;18.73;;;30.80;61.30;;;;;;1861831;75;21676;-83
2022/03/11 12:30:20;;;;;;;26.93;17.37;;;30.80;60.50;;;;;;1863093;75;21186;-83
2022/03/11 12:32:52;;;;;;;22.93;17.65;;;30.80;60.70;;;;;;1876829;75;21124;-83
2022/03/11 12:35:25;;;;;;;22.27;17.05;;;30.70;60.70;;;;;;1871600;75;21419;-83
2022/03/11 12:37:56;;;;;;;23.67;17.57;;;30.70;60.80;;;;;;1867357;76;21136;-82
2022/03/11 12:40:28;;;;;;;23.10;16.77;;;30.70;61.10;;;;;;1872062;76;21568;-83
2022/03/11 12:43:01;;;;;;;21.75;17.32;;;30.70;61.30;;;;;;1866567;75;21556;-84
2022/03/11 12:45:34;;;;;;;26.70;17.48;;;30.60;61.50;;;;;;1870842;76;21635;-84
2022/03/11 12:48:06;;;;;;;22.93;16.77;;;30.60;61.60;;;;;;1873497;76;21617;-82